createdAt,value
2023-01-30T00:00:02.656Z,30.33
2023-01-30T00:02:31.237Z,29.23
2023-01-30T00:05:00.769Z,29.85
2023-01-30T00:07:29.358Z,32.58
2023-01-30T00:09:57.865Z,27.85
2023-01-30T00:12:27.292Z,34.85
2023-01-30T00:14:55.566Z,27.98
2023-01-30T00:17:23.568Z,34.22
2023-01-30T00:19:52.278Z,33.10
2023-01-30T00:22:22.040Z,32.38
2023-01-30T00:24:50.843Z,34.38
2023-01-30T00:27:19.242Z,30.42
2023-01-30T00:29:57.711Z,36.08
2023-01-30T00:34:59.429Z,34.35
2023-01-30T00:37:29.124Z,31.77
2023-01-30T00:39:58.400Z,31.15
2023-01-30T00:42:44.094Z,31.67
2023-01-30T00:45:37.505Z,34.25
2023-01-30T00:51:04.831Z,28.98
2023-01-30T00:53:51.011Z,29.85
2023-01-30T00:56:19.637Z,26.92
2023-01-30T00:58:48.343Z,30.70
2023-01-30T01:01:23.128Z,31.23
2023-01-30T01:03:51.917Z,29.40
2023-01-30T01:06:21.943Z,31.88
2023-01-30T01:08:51.371Z,31.98
2023-01-30T01:11:25.541Z,30.25
2023-01-30T01:13:55.431Z,24.90
2023-01-30T01:16:26.508Z,29.23
2023-01-30T01:18:55.387Z,30.25
2023-01-30T01:21:24.537Z,30.40
2023-01-30T01:23:55.310Z,31.00
2023-01-30T01:26:28.374Z,34.10
2023-01-30T01:28:57.529Z,29.40
2023-01-30T01:31:26.603Z,32.08
2023-01-30T01:33:55.076Z,24.50
2023-01-30T01:36:51.766Z,29.13
2023-01-30T01:39:14.903Z,34.05
2023-01-30T01:41:43.174Z,31.23
2023-01-30T01:44:13.189Z,29.75
2023-01-30T01:46:46.794Z,32.17
2023-01-30T01:49:18.496Z,32.50
2023-01-30T01:51:53.807Z,34.17
2023-01-30T01:54:31.072Z,30.85
2023-01-30T01:57:06.622Z,25.80
2023-01-30T01:59:39.414Z,35.85
2023-01-30T02:02:10.906Z,33.20
2023-01-30T02:04:58.731Z,31.48
2023-01-30T02:07:27.743Z,30.35
2023-01-30T02:09:59.230Z,30.17
2023-01-30T02:12:27.960Z,28.42
2023-01-30T02:14:59.398Z,28.70
2023-01-30T02:17:28.116Z,29.42
2023-01-30T02:20:05.039Z,26.05
2023-01-30T02:22:54.917Z,26.63
2023-01-30T02:25:50.937Z,30.25
2023-01-30T02:28:53.420Z,31.52
2023-01-30T02:31:41.621Z,25.85
2023-01-30T02:34:23.867Z,29.52
2023-01-30T02:37:00.090Z,32.93
2023-01-30T02:39:39.312Z,28.50
2023-01-30T02:42:15.944Z,33.22
2023-01-30T02:44:54.584Z,28.42
2023-01-30T02:47:49.159Z,35.30
2023-01-30T02:50:22.823Z,35.85
2023-01-30T02:52:51.033Z,40.35
2023-01-30T02:55:22.911Z,35.92
2023-01-30T02:57:51.873Z,36.67
2023-01-30T03:00:27.388Z,35.42
2023-01-30T03:03:27.554Z,39.05
2023-01-30T03:06:22.127Z,35.17
2023-01-30T03:09:01.006Z,41.17
2023-01-30T03:11:41.063Z,38.03
2023-01-30T03:14:16.023Z,42.00
2023-01-30T03:16:44.999Z,37.50
2023-01-30T03:19:15.002Z,33.75
2023-01-30T03:21:44.944Z,31.73
2023-01-30T03:24:13.527Z,35.80
2023-01-30T03:26:48.091Z,35.03
2023-01-30T03:29:16.962Z,34.25
2023-01-30T03:31:46.028Z,27.88
2023-01-30T03:34:15.680Z,35.92
2023-01-30T03:36:44.123Z,29.02
2023-01-30T03:39:12.715Z,34.70
2023-01-30T03:41:41.383Z,34.75
2023-01-30T03:44:10.744Z,35.70
2023-01-30T03:46:38.818Z,39.45
2023-01-30T03:49:06.870Z,35.72
2023-01-30T03:51:36.935Z,35.65
2023-01-30T03:54:05.135Z,21.25
2023-01-30T03:56:33.554Z,40.30
2023-01-30T03:59:01.665Z,32.30
2023-01-30T04:01:29.853Z,30.00
2023-01-30T04:03:58.760Z,42.65
2023-01-30T04:06:27.336Z,35.53
2023-01-30T04:08:57.109Z,41.20
2023-01-30T04:11:25.755Z,32.63
2023-01-30T04:13:54.089Z,33.45
2023-01-30T04:16:24.502Z,32.30
2023-01-30T04:18:53.881Z,32.70
2023-01-30T04:21:22.545Z,37.75
2023-01-30T04:23:51.143Z,22.00
2023-01-30T04:26:22.744Z,26.27
2023-01-30T04:28:51.367Z,31.38
2023-01-30T04:31:20.245Z,33.33
2023-01-30T04:33:55.862Z,32.40
2023-01-30T04:36:23.869Z,21.23
2023-01-30T04:38:53.266Z,33.67
2023-01-30T04:41:23.189Z,35.33
2023-01-30T04:43:51.781Z,27.10
2023-01-30T04:46:19.820Z,28.40
2023-01-30T04:48:48.420Z,32.33
2023-01-30T04:51:17.789Z,31.10
2023-01-30T04:53:47.880Z,31.42
2023-01-30T04:56:16.644Z,33.33
2023-01-30T04:58:46.717Z,21.05
2023-01-30T05:01:24.630Z,28.17
2023-01-30T05:03:53.296Z,26.13
2023-01-30T05:06:22.166Z,28.58
2023-01-30T05:08:51.029Z,29.40
2023-01-30T05:11:19.829Z,32.47
2023-01-30T05:13:49.276Z,32.45
2023-01-30T05:16:17.937Z,31.52
2023-01-30T05:18:46.632Z,29.60
2023-01-30T05:21:18.227Z,28.17
2023-01-30T05:23:47.996Z,29.15
2023-01-30T05:26:17.539Z,29.90
2023-01-30T05:28:47.028Z,24.83
2023-01-30T05:31:16.912Z,24.00
2023-01-30T05:33:47.784Z,25.90
2023-01-30T05:36:17.667Z,24.95
2023-01-30T05:38:48.621Z,25.05
2023-01-30T05:41:18.330Z,24.20
2023-01-30T05:43:52.579Z,27.20
2023-01-30T05:46:24.246Z,22.27
2023-01-30T05:48:52.503Z,22.83
2023-01-30T05:51:23.142Z,23.33
2023-01-30T05:53:51.838Z,21.35
2023-01-30T05:56:21.064Z,22.75
2023-01-30T05:58:52.498Z,20.40
2023-01-30T06:01:23.544Z,19.95
2023-01-30T06:03:52.484Z,20.33
2023-01-30T06:06:21.023Z,20.55
2023-01-30T06:08:53.942Z,23.13
2023-01-30T06:13:51.811Z,21.33
2023-01-30T06:16:22.410Z,21.95
2023-01-30T06:18:50.737Z,20.77
2023-01-30T06:21:18.830Z,16.25
2023-01-30T06:23:51.146Z,20.98
2023-01-30T06:26:22.615Z,22.75
2023-01-30T06:28:50.947Z,22.23
2023-01-30T06:31:20.356Z,22.13
2023-01-30T06:33:52.752Z,21.67
2023-01-30T06:36:25.090Z,13.80
2023-01-30T06:38:53.483Z,17.55
2023-01-30T06:41:24.447Z,23.17
2023-01-30T06:43:56.064Z,23.50
2023-01-30T06:46:24.105Z,25.30
2023-01-30T06:48:57.639Z,23.67
2023-01-30T06:51:27.567Z,25.67
2023-01-30T06:53:55.996Z,22.13
2023-01-30T06:56:24.375Z,25.60
2023-01-30T06:58:54.814Z,23.45
2023-01-30T07:01:23.350Z,24.00
2023-01-30T07:03:52.683Z,19.63
2023-01-30T07:06:22.360Z,16.05
2023-01-30T07:08:50.926Z,25.17
2023-01-30T07:11:20.045Z,18.58
2023-01-30T07:13:49.541Z,19.73
2023-01-30T07:16:17.849Z,26.35
2023-01-30T07:18:46.264Z,24.08
2023-01-30T07:21:14.341Z,20.77
2023-01-30T07:23:43.902Z,12.75
2023-01-30T07:26:12.765Z,22.88
2023-01-30T07:28:41.099Z,23.60
2023-01-30T07:31:10.246Z,20.73
2023-01-30T07:33:38.601Z,17.45
2023-01-30T07:36:07.331Z,19.02
2023-01-30T07:38:35.264Z,27.13
2023-01-30T07:41:05.374Z,26.88
2023-01-30T07:43:33.521Z,26.67
2023-01-30T07:46:02.090Z,24.40
2023-01-30T07:48:30.009Z,26.20
2023-01-30T07:50:57.924Z,28.17
2023-01-30T07:53:26.364Z,17.60
2023-01-30T07:55:54.827Z,24.85
2023-01-30T07:58:24.181Z,27.38
2023-01-30T08:01:02.611Z,14.95
2023-01-30T08:03:30.907Z,18.05
2023-01-30T08:05:59.056Z,19.63
2023-01-30T08:08:26.975Z,20.85
2023-01-30T08:10:55.133Z,25.05
2023-01-30T08:13:24.872Z,21.17
2023-01-30T08:15:52.873Z,21.83
2023-01-30T08:18:20.951Z,27.13
2023-01-30T08:20:49.124Z,22.70
2023-01-30T08:23:17.520Z,23.02
2023-01-30T08:25:45.617Z,19.35
2023-01-30T08:28:13.761Z,19.30
2023-01-30T08:30:44.488Z,23.30
2023-01-30T08:33:12.906Z,21.08
2023-01-30T08:35:41.883Z,21.70
2023-01-30T08:38:10.036Z,20.27
2023-01-30T08:40:38.693Z,22.02
2023-01-30T08:43:07.390Z,15.88
2023-01-30T08:45:35.345Z,23.23
2023-01-30T08:48:06.932Z,21.40
2023-01-30T08:50:35.632Z,22.70
2023-01-30T08:53:07.355Z,23.08
2023-01-30T08:55:35.609Z,25.08
2023-01-30T08:58:03.772Z,23.55
2023-01-30T09:00:31.696Z,21.42
2023-01-30T09:03:00.524Z,24.55
2023-01-30T09:05:30.876Z,22.40
2023-01-30T09:07:58.960Z,23.70
2023-01-30T09:10:27.306Z,20.55
2023-01-30T09:12:57.751Z,23.88
2023-01-30T09:15:25.701Z,20.15
2023-01-30T09:17:53.992Z,19.45
2023-01-30T09:20:24.372Z,24.08
2023-01-30T09:22:53.661Z,24.10
2023-01-30T09:25:22.247Z,19.20
2023-01-30T09:27:51.665Z,21.95
2023-01-30T09:30:20.847Z,20.73
2023-01-30T09:32:49.571Z,18.92
2023-01-30T09:35:17.738Z,20.48
2023-01-30T09:37:49.599Z,23.23
2023-01-30T09:40:23.510Z,21.85
2023-01-30T09:43:23.732Z,18.35
2023-01-30T09:46:06.945Z,17.23
2023-01-30T09:51:32.376Z,21.75
2023-01-30T09:54:18.174Z,22.17
2023-01-30T09:56:47.550Z,20.05
2023-01-30T09:59:24.731Z,22.10
2023-01-30T10:02:01.513Z,18.02
2023-01-30T10:04:35.717Z,19.73
2023-01-30T10:07:16.450Z,15.52
2023-01-30T10:09:54.553Z,16.50
2023-01-30T10:12:36.022Z,17.35
2023-01-30T10:15:23.724Z,15.60
2023-01-30T10:18:03.854Z,13.38
2023-01-30T10:20:40.792Z,13.77
2023-01-30T10:23:36.691Z,13.57
2023-01-30T10:26:10.780Z,10.85
2023-01-30T10:28:49.807Z,12.48
2023-01-30T10:31:23.257Z,7.03
2023-01-30T10:33:59.284Z,9.38
2023-01-30T10:36:37.735Z,6.80
2023-01-30T10:39:19.677Z,12.13
2023-01-30T10:41:56.271Z,8.30
2023-01-30T10:44:25.949Z,9.30
2023-01-30T10:47:27.895Z,9.50
2023-01-30T10:50:04.579Z,8.07
2023-01-30T10:52:47.036Z,8.90
2023-01-30T10:55:36.470Z,7.90
2023-01-30T10:58:15.108Z,8.75
2023-01-30T11:00:50.886Z,10.98
2023-01-30T11:03:27.492Z,9.05
2023-01-30T11:05:59.979Z,10.55
2023-01-30T11:08:29.937Z,8.90
2023-01-30T11:10:59.182Z,8.48
2023-01-30T11:13:31.104Z,9.45
2023-01-30T11:16:05.942Z,8.65
2023-01-30T11:19:18.216Z,11.68
2023-01-30T11:21:34.979Z,9.13
2023-01-30T11:24:18.019Z,10.32
2023-01-30T11:26:48.368Z,9.90
2023-01-30T11:29:25.330Z,10.23
2023-01-30T11:31:55.971Z,10.98
2023-01-30T11:34:25.384Z,9.50
2023-01-30T11:36:53.997Z,11.23
2023-01-30T11:39:25.285Z,13.73
2023-01-30T11:42:04.724Z,8.88
2023-01-30T11:44:35.378Z,9.07
2023-01-30T11:47:09.678Z,13.02
2023-01-30T11:49:58.385Z,13.35
2023-01-30T11:52:31.510Z,8.18
2023-01-30T11:55:08.148Z,8.35
2023-01-30T11:57:43.240Z,9.10
2023-01-30T12:00:19.424Z,8.88
2023-01-30T12:02:50.486Z,7.60
2023-01-30T12:05:26.628Z,8.30
2023-01-30T12:07:54.723Z,9.20
2023-01-30T12:10:33.071Z,7.97
2023-01-30T12:13:04.504Z,8.60
2023-01-30T12:15:34.547Z,7.07
2023-01-30T12:18:10.422Z,5.75
2023-01-30T12:20:51.505Z,7.93
2023-01-30T12:23:28.357Z,9.05
2023-01-30T12:26:02.352Z,9.73
2023-01-30T12:28:38.833Z,9.70
2023-01-30T12:31:12.918Z,12.35
2023-01-30T12:33:42.541Z,8.63
2023-01-30T12:36:17.268Z,9.07
2023-01-30T12:39:07.072Z,9.15
2023-01-30T12:41:56.827Z,8.27
2023-01-30T12:44:39.505Z,8.18
2023-01-30T12:47:31.797Z,8.57
2023-01-30T12:50:26.026Z,9.43
2023-01-30T12:53:17.598Z,9.00
2023-01-30T12:55:56.162Z,8.85
2023-01-30T12:58:29.896Z,8.18
2023-01-30T13:01:14.908Z,10.15
2023-01-30T13:03:47.284Z,8.35
2023-01-30T13:06:46.851Z,9.45
2023-01-30T13:09:33.573Z,8.30
2023-01-30T13:12:09.302Z,8.75
2023-01-30T13:14:45.133Z,10.25
2023-01-30T13:17:29.969Z,9.65
2023-01-30T13:20:06.398Z,7.43
2023-01-30T13:22:47.593Z,9.10
2023-01-30T13:25:24.468Z,10.02
2023-01-30T13:27:57.249Z,10.35
2023-01-30T13:30:27.922Z,10.43
2023-01-30T13:32:59.741Z,8.15
2023-01-30T13:35:37.008Z,9.85
2023-01-30T13:38:10.297Z,11.30
2023-01-30T13:40:42.042Z,7.50
2023-01-30T13:43:20.118Z,8.52
2023-01-30T13:45:51.384Z,7.78
2023-01-30T13:48:36.448Z,7.65
2023-01-30T13:51:25.944Z,7.22
2023-01-30T13:54:04.386Z,8.77
2023-01-30T13:56:43.258Z,7.60
2023-01-30T13:59:23.583Z,8.90
2023-01-30T14:02:21.126Z,8.10
2023-01-30T14:04:55.228Z,9.80
2023-01-30T14:07:29.591Z,7.85
2023-01-30T14:10:13.223Z,7.70
2023-01-30T14:12:43.690Z,9.13
2023-01-30T14:15:28.866Z,8.63
2023-01-30T14:18:02.906Z,7.18
2023-01-30T14:20:35.672Z,9.30
2023-01-30T14:23:10.886Z,6.72
2023-01-30T14:25:49.432Z,8.63
2023-01-30T14:28:51.085Z,7.40
2023-01-30T14:31:52.039Z,9.38
2023-01-30T14:34:47.380Z,9.73
2023-01-30T14:37:52.120Z,11.75
2023-01-30T14:40:48.987Z,10.80
2023-01-30T14:43:53.413Z,11.55
2023-01-30T14:46:54.290Z,11.27
2023-01-30T14:49:32.648Z,8.57
2023-01-30T14:52:01.931Z,8.70
2023-01-30T14:54:42.265Z,9.65
2023-01-30T14:57:34.941Z,10.55
2023-01-30T15:00:18.601Z,8.68
2023-01-30T15:02:53.563Z,9.48
2023-01-30T15:05:29.926Z,7.93
2023-01-30T15:08:08.356Z,10.43
2023-01-30T15:10:52.303Z,8.88
2023-01-30T15:13:50.448Z,8.43
2023-01-30T15:16:45.953Z,10.88
2023-01-30T15:19:37.063Z,9.82
2023-01-30T15:22:17.925Z,11.48
2023-01-30T15:25:22.666Z,11.43
2023-01-30T15:28:01.828Z,9.60
2023-01-30T15:30:48.360Z,11.57
2023-01-30T15:33:29.536Z,16.05
2023-01-30T15:35:58.918Z,10.77
2023-01-30T15:38:30.344Z,11.48
2023-01-30T15:41:01.898Z,12.07
2023-01-30T15:43:58.707Z,11.55
2023-01-30T15:46:38.363Z,14.32
2023-01-30T15:49:36.427Z,15.68
2023-01-30T15:52:07.103Z,17.45
2023-01-30T15:54:35.602Z,13.40
2023-01-30T15:57:05.035Z,11.98
2023-01-30T15:59:36.370Z,12.95
2023-01-30T16:02:08.789Z,13.80
2023-01-30T16:04:37.132Z,13.55
2023-01-30T16:07:16.466Z,12.88
2023-01-30T16:10:06.449Z,11.27
2023-01-30T16:12:36.499Z,12.85
2023-01-30T16:15:19.369Z,14.10
2023-01-30T16:18:01.813Z,11.90
2023-01-30T16:20:33.280Z,13.43
2023-01-30T16:23:02.948Z,13.20
2023-01-30T16:25:34.355Z,14.52
2023-01-30T16:28:02.680Z,13.98
2023-01-30T16:30:31.416Z,13.48
2023-01-30T16:33:09.750Z,13.80
2023-01-30T16:35:45.698Z,15.77
2023-01-30T16:38:36.746Z,13.73
2023-01-30T16:41:05.218Z,11.63
2023-01-30T16:43:34.147Z,17.65
2023-01-30T16:46:42.057Z,17.30
2023-01-30T16:49:19.038Z,13.45
2023-01-30T16:51:48.575Z,13.95
2023-01-30T16:54:22.118Z,13.20
2023-01-30T16:56:54.491Z,14.30
2023-01-30T16:59:26.836Z,13.23
2023-01-30T17:01:59.191Z,14.02
2023-01-30T17:04:32.617Z,13.75
2023-01-30T17:07:04.064Z,12.50
2023-01-30T17:09:47.436Z,13.35
2023-01-30T17:12:49.632Z,12.10
2023-01-30T17:15:34.769Z,15.30
2023-01-30T17:18:03.737Z,14.70
2023-01-30T17:20:43.169Z,16.55
2023-01-30T17:23:20.574Z,14.48
2023-01-30T17:25:50.533Z,13.63
2023-01-30T17:28:24.453Z,14.73
2023-01-30T17:30:52.838Z,14.85
2023-01-30T17:33:20.976Z,13.35
2023-01-30T17:35:50.406Z,13.95
2023-01-30T17:38:18.282Z,10.75
2023-01-30T17:40:46.672Z,11.48
2023-01-30T17:43:15.844Z,14.20
2023-01-30T17:45:44.696Z,11.00
2023-01-30T17:48:14.192Z,10.95
2023-01-30T17:50:42.942Z,12.10
2023-01-30T17:53:12.346Z,14.82
2023-01-30T17:55:40.945Z,12.77
2023-01-30T17:58:13.195Z,12.43
2023-01-30T18:00:41.215Z,12.43
2023-01-30T18:03:09.300Z,12.55
2023-01-30T18:05:37.818Z,15.10
2023-01-30T18:08:05.781Z,17.50
2023-01-30T18:10:35.159Z,16.77
2023-01-30T18:13:03.164Z,15.65
2023-01-30T18:15:31.094Z,17.23
2023-01-30T18:17:59.160Z,14.50
2023-01-30T18:20:27.531Z,15.50
2023-01-30T18:22:55.497Z,13.55
2023-01-30T18:25:23.543Z,16.45
2023-01-30T18:27:52.867Z,13.82
2023-01-30T18:30:24.541Z,15.75
2023-01-30T18:32:53.901Z,15.00
2023-01-30T18:35:23.057Z,14.80
2023-01-30T18:37:51.790Z,12.77
2023-01-30T18:40:20.493Z,20.80
2023-01-30T18:42:48.810Z,14.27
2023-01-30T18:45:18.420Z,14.60
2023-01-30T18:47:46.626Z,17.17
2023-01-30T18:50:14.555Z,16.95
2023-01-30T18:52:42.523Z,14.73
2023-01-30T18:55:10.844Z,17.15
2023-01-30T18:57:38.820Z,14.15
2023-01-30T19:00:08.380Z,15.98
2023-01-30T19:02:37.762Z,14.23
2023-01-30T19:05:06.359Z,13.85
2023-01-30T19:07:36.290Z,16.95
2023-01-30T19:10:04.379Z,14.40
2023-01-30T19:12:50.025Z,16.80
2023-01-30T19:15:18.045Z,13.70
2023-01-30T19:17:47.456Z,14.98
2023-01-30T19:20:15.402Z,15.85
2023-01-30T19:22:43.467Z,15.02
2023-01-30T19:25:12.778Z,15.70
2023-01-30T19:27:41.075Z,13.40
2023-01-30T19:30:10.492Z,19.15
2023-01-30T19:32:38.422Z,18.50
2023-01-30T19:35:08.724Z,16.83
2023-01-30T19:37:38.576Z,14.65
2023-01-30T19:40:11.121Z,16.83
2023-01-30T19:42:43.860Z,17.58
2023-01-30T19:47:40.644Z,17.75
2023-01-30T19:50:12.616Z,18.48
2023-01-30T19:52:40.736Z,18.73
2023-01-30T19:55:09.323Z,17.02
2023-01-30T19:57:37.267Z,18.00
2023-01-30T20:00:06.628Z,15.20
2023-01-30T20:02:34.845Z,14.80
2023-01-30T20:05:03.568Z,18.83
2023-01-30T20:07:37.157Z,16.20
2023-01-30T20:10:05.663Z,14.40
2023-01-30T20:12:37.652Z,15.98
2023-01-30T20:15:06.460Z,18.80
2023-01-30T20:17:35.272Z,15.93
2023-01-30T20:20:03.479Z,19.35
2023-01-30T20:22:31.432Z,15.70
2023-01-30T20:25:00.899Z,13.60
2023-01-30T20:27:29.355Z,16.40
2023-01-30T20:29:57.377Z,16.25
2023-01-30T20:32:25.515Z,15.73
2023-01-30T20:34:53.409Z,14.05
2023-01-30T20:37:21.716Z,17.60
2023-01-30T20:39:51.205Z,17.00
2023-01-30T20:42:21.011Z,19.63
2023-01-30T20:44:48.974Z,17.52
2023-01-30T20:47:17.305Z,19.92
2023-01-30T20:49:45.551Z,23.13
2023-01-30T20:52:15.711Z,19.10
2023-01-30T20:54:43.854Z,15.73
2023-01-30T20:57:12.328Z,16.45
2023-01-30T20:59:42.271Z,19.75
2023-01-30T21:02:11.021Z,18.10
2023-01-30T21:04:39.499Z,18.38
2023-01-30T21:07:07.463Z,20.85
2023-01-30T21:09:36.070Z,20.30
2023-01-30T21:12:04.481Z,16.75
2023-01-30T21:14:32.820Z,19.23
2023-01-30T21:17:02.408Z,16.77
2023-01-30T21:19:30.362Z,19.73
2023-01-30T21:21:58.549Z,20.20
2023-01-30T21:24:28.198Z,19.23
2023-01-30T21:26:57.153Z,19.27
2023-01-30T21:29:27.300Z,20.30
2023-01-30T21:31:56.616Z,20.55
2023-01-30T21:34:26.618Z,19.48
2023-01-30T21:37:11.354Z,18.45
2023-01-30T21:39:56.633Z,21.52
2023-01-30T21:42:42.475Z,17.27
2023-01-30T21:45:10.743Z,20.00
2023-01-30T21:47:38.915Z,22.40
2023-01-30T21:50:10.326Z,19.35
2023-01-30T21:52:39.043Z,22.40
2023-01-30T21:55:07.830Z,15.63
2023-01-30T21:57:39.298Z,20.67
2023-01-30T22:00:08.460Z,17.60
2023-01-30T22:02:36.869Z,17.08
2023-01-30T22:05:05.545Z,18.08
2023-01-30T22:07:35.207Z,17.52
2023-01-30T22:10:03.195Z,19.40
2023-01-30T22:12:32.438Z,18.27
2023-01-30T22:15:03.318Z,19.98
2023-01-30T22:17:31.628Z,18.77
2023-01-30T22:19:59.743Z,20.83
2023-01-30T22:22:27.848Z,21.52
2023-01-30T22:24:57.256Z,20.48
2023-01-30T22:27:25.564Z,17.77
2023-01-30T22:29:54.073Z,22.83
2023-01-30T22:32:22.175Z,21.02
2023-01-30T22:34:50.121Z,18.10
2023-01-30T22:37:18.257Z,20.17
2023-01-30T22:39:46.323Z,24.40
2023-01-30T22:42:19.422Z,20.65
2023-01-30T22:47:18.320Z,21.45
2023-01-30T22:49:46.442Z,20.55
2023-01-30T22:52:14.632Z,18.75
2023-01-30T22:54:42.735Z,23.63
2023-01-30T22:57:10.978Z,26.90
2023-01-30T22:59:41.025Z,22.40
2023-01-30T23:02:10.301Z,17.90
2023-01-30T23:04:40.111Z,22.20
2023-01-30T23:07:08.476Z,20.55
2023-01-30T23:09:36.852Z,21.10
2023-01-30T23:12:21.928Z,20.92
2023-01-30T23:14:51.739Z,22.02
2023-01-30T23:17:37.863Z,20.10
2023-01-30T23:20:07.033Z,22.45
2023-01-30T23:22:35.526Z,19.38
2023-01-30T23:25:03.849Z,18.08
2023-01-30T23:27:32.241Z,18.15
2023-01-30T23:30:04.119Z,20.48
2023-01-30T23:32:33.135Z,16.48
2023-01-30T23:35:01.405Z,20.38
2023-01-30T23:37:43.344Z,21.40
2023-01-30T23:40:12.747Z,19.08
2023-01-30T23:42:41.040Z,19.70
2023-01-30T23:45:11.657Z,19.58
2023-01-30T23:47:40.129Z,22.05
2023-01-30T23:50:09.887Z,19.95
2023-01-30T23:52:38.710Z,23.15
2023-01-30T23:55:07.889Z,23.27
2023-01-30T23:57:37.501Z,21.70
